• Join FlightAware (Why Join?)
  • Login
  • US Flag 
03:24PM EDT


 

Airport Tracker/Info


-or-


 

Live Flight TrackerFlight Track Log ✈ UAL139 ✈ 13-Feb-2014 ✈ KDEN - RJAA / NRT

Flight Track Log - Related Links

Times and Time Zones

All times are in EST time to prevent confusion due to time zone crossing. See the UAL139 flight status page for this flight to view local times or setup timezone preferences in your user account.

Time Position Orientation Groundspeed Altitude Reporting Facility
EST Latitude Longitude Course Direction KTS MPH feet Rate Location/Type
02:32PM 39.8407 -104.6944 271° West 103 119 5,500  Level FlightAware ADS-B (KBJC)
02:32PM 39.8408 -104.7127 270° West 180 207 5,500 1,380 Level FlightAware ADS-B (KBJC)
02:33PM 39.8454 -104.7598 277° West 199 229 6,900 1,680 Climbing FlightAware ADS-B (KEIK)
02:33PM 39.8620 -104.7766 322° Northwest 235 270 7,200 840 Climbing FlightAware ADS-B (KEIK)
02:33PM 39.8601 -104.7758 161° South 243 280 7,300 1,800 Climbing FlightAware ADS-B (KBJC)
02:34PM 39.8827 -104.7793 353° North 260 299 7,900 2,100 Climbing FlightAware ADS-B (KEIK)
02:34PM 39.9138 -104.7776 North 277 319 8,600 2,400 Climbing FlightAware ADS-B (KEIK)
02:34PM 39.9378 -104.7759 North 284 327 9,500 2,100 Climbing FlightAware ADS-B (KEIK)
02:35PM 39.9664 -104.7731 North 287 330 10,000 720 Climbing FlightAware ADS-B (KEIK)
02:35PM 39.9961 -104.7690 North 295 339 10,200 960 Climbing FlightAware ADS-B (KBJC)
02:36PM 40.0724 -104.7597 North 337 388 11,300 1,500 Climbing FlightAware ADS-B (KBJC)
02:36PM 40.1076 -104.7599 360° North 351 404 11,900 2,160 Climbing FlightAware ADS-B (KBJC)
02:37PM 40.1720 -104.7681 354° North 362 417 13,700 3,000 Climbing FlightAware ADS-B (KBJC)
02:38PM 40.2489 -104.7783 354° North 357 411 16,100 2,940 Climbing FlightAware ADS-B (KEIK)
02:39PM 40.3185 -104.7877 354° North 360 414 17,800 2,340 Climbing FlightAware ADS-B (KEIK)
02:39PM 40.3868 -104.7966 354° North 367 422 19,300 2,040 Climbing FlightAware ADS-B (KEIK)
02:40PM 40.4344 -104.8031 354° North 372 428 20,300 1,920 Climbing FlightAware ADS-B (KBJC)
02:40PM 40.5125 -104.8136 354° North 380 437 21,800 1,860 Climbing FlightAware ADS-B (KBJC)
02:41PM 40.5918 -104.8242 354° North 392 451 23,100 1,740 Climbing FlightAware ADS-B (KBJC)
02:42PM 40.6593 -104.8333 354° North 400 460 24,300 1,800 Climbing FlightAware ADS-B (KEIK)
02:43PM 40.7441 -104.8447 354° North 404 465 25,600 1,980 Climbing FlightAware ADS-B (KEIK)
02:43PM 40.8089 -104.8626 348° North 397 457 26,900 1,860 Climbing FlightAware ADS-B (KEIK)
02:44PM 40.8228 -104.8690 341° North 398 458 27,800 1,740 Climbing FlightAware ADS-B (KBJC)
02:44PM 40.8825 -104.9007 338° Northwest 399 459 28,700 1,500 Climbing FlightAware ADS-B (KEIK)
02:45PM 40.9717 -104.9649 331° Northwest 404 465 29,500 1,260 Climbing FlightAware ADS-B (KBJC)
02:46PM 41.0358 -105.0126 331° Northwest 414 476 30,400 1,320 Climbing FlightAware ADS-B (KEIK)
02:46PM 41.1143 -105.0709 331° Northwest 415 478 31,400 1,560 Climbing FlightAware ADS-B (KEIK)
02:47PM 41.1687 -105.1114 331° Northwest 411 473 32,700 2,100 Climbing FlightAware ADS-B (KEIK)
02:48PM 41.2470 -105.1700 331° Northwest 391 450 34,400 2,340 Climbing FlightAware ADS-B (KEIK)
02:48PM 41.3078 -105.2158 330° Northwest 375 432 35,900 1,140 Climbing FlightAware ADS-B (KEIK)
02:49PM 41.3627 -105.2573 330° Northwest 372 428 36,000 60 Climbing FlightAware ADS-B (KEIK)
02:50PM 41.4305 -105.3084 331° Northwest 368 423 36,000  Level FlightAware ADS-B (KEIK)
02:50PM 41.5057 -105.3651 331° Northwest 372 428 36,000  Level FlightAware ADS-B (KEIK)
02:51PM 41.5642 -105.4095 330° Northwest 371 427 36,000  Level FlightAware ADS-B (KEIK)
02:52PM 41.6287 -105.4585 330° Northwest 371 427 36,000  Level FlightAware ADS-B (KEIK)
02:52PM 41.6853 -105.5018 330° Northwest 375 432 36,000  Level FlightAware ADS-B (KEIK)
02:53PM 41.7460 -105.5481 330° Northwest 372 428 36,000  Level FlightAware ADS-B (KEIK)
02:54PM 41.8032 -105.5919 330° Northwest 371 427 36,000  Level FlightAware ADS-B (KEIK)
02:54PM 41.8612 -105.6365 330° Northwest 372 428 36,000  Level FlightAware ADS-B (KEIK)
02:55PM 41.9232 -105.6841 330° Northwest 371 427 36,000  Level FlightAware ADS-B (KEIK)
02:56PM 41.9852 -105.7320 330° Northwest 370 426 36,000  Level FlightAware ADS-B (KEIK)
02:56PM 42.0443 -105.7776 330° Northwest 371 427 36,000  Level FlightAware ADS-B (KEIK)
02:57PM 42.1061 -105.8254 330° Northwest 373 429 36,000  Level FlightAware ADS-B (KEIK)
02:59PM 42.2198 -105.9138 330° Northwest 375 432 36,000  Level FlightAware ADS-B (KEIK)
02:59PM 42.2852 -105.9648 330° Northwest 378 435 36,000  Level FlightAware ADS-B (KEIK)
03:00PM 42.3503 -106.0157 330° Northwest 379 436 36,000  Level FlightAware ADS-B (KEIK)
03:01PM 42.4134 -106.0650 330° Northwest 382 440 36,000  Level FlightAware ADS-B (KEIK)
03:01PM 42.4627 -106.1037 330° Northwest 380 437 36,000  Level FlightAware ADS-B (KEIK)
03:02PM 42.5346 -106.1602 330° Northwest 380 437 36,000  Level FlightAware ADS-B (KEIK)
03:03PM 42.5925 -106.2060 330° Northwest 379 436 36,000  Level FlightAware ADS-B (KEIK)
03:03PM 42.6519 -106.2550 330° Northwest 379 436 36,000  Level Salt Lake Center
03:04PM 42.7106 -106.3014 330° Northwest 380 437 36,000  Level Denver Center
03:05PM 42.7989 -106.3711 330° Northwest 382 440 36,000  Level Denver Center
03:06PM 42.9031 -106.4547 330° Northwest 387 445 36,000  Level Denver Center
03:07PM 42.9914 -106.5250 330° Northwest 385 443 36,000  Level Denver Center
03:08PM 43.0806 -106.5969 329° Northwest 386 444 36,000  Level Denver Center
03:09PM 43.1847 -106.6789 330° Northwest 386 444 36,000  Level Denver Center
03:10PM 43.2719 -106.7500 329° Northwest 383 441 36,000  Level Denver Center
03:11PM 43.3744 -106.8328 330° Northwest 384 442 36,000  Level Denver Center
03:12PM 43.4678 -106.9094 329° Northwest 383 441 36,000  Level Denver Center
03:13PM 43.5594 -106.9822 330° Northwest 381 438 36,000  Level Denver Center
03:14PM 43.6503 -107.0608 328° Northwest 386 444 36,000  Level Denver Center
03:15PM 43.7408 -107.1333 330° Northwest 377 434 36,000  Level Denver Center
03:16PM 43.8286 -107.2064 329° Northwest 370 426 36,000  Level Denver Center
03:17PM 43.9353 -107.2939 329° Northwest 372 428 36,000  Level Denver Center
03:18PM 44.0247 -107.3678 329° Northwest 374 430 36,000  Level Denver Center
03:19PM 44.1144 -107.4436 329° Northwest 378 435 36,000  Level Denver Center
03:20PM 44.2042 -107.5197 329° Northwest 378 435 36,000  Level Denver Center
03:21PM 44.2944 -107.5950 329° Northwest 377 434 36,000  Level Denver Center
03:23PM 44.4172 -107.7008 328° Northwest 372 428 36,000  Level Salt Lake Center
03:24PM 44.5092 -107.7786 329° Northwest 381 438 36,000  Level Salt Lake Center
03:25PM 44.6200 -107.8722 329° Northwest 387 445 36,000  Level Salt Lake Center
03:26PM 44.7103 -107.9486 329° Northwest 377 434 36,000  Level Salt Lake Center
03:27PM 44.8028 -108.0303 328° Northwest 381 438 36,000  Level Salt Lake Center
03:28PM 44.8972 -108.1106 329° Northwest 387 445 36,000  Level Salt Lake Center
03:29PM 44.9914 -108.1911 329° Northwest 391 450 36,000 240 Level Salt Lake Center
03:30PM 45.0847 -108.2731 328° Northwest 393 452 36,500 420 Climbing Salt Lake Center
03:31PM 45.1786 -108.3550 328° Northwest 396 456 36,900 300 Climbing Salt Lake Center
03:32PM 45.2756 -108.4403 328° Northwest 408 470 37,200 480 Climbing Salt Lake Center
03:33PM 45.3731 -108.5258 328° Northwest 413 475 38,000 360 Climbing Salt Lake Center
03:34PM 45.4675 -108.6089 328° Northwest 402 463 38,000  Level Salt Lake Center
03:35PM 45.5606 -108.6906 328° Northwest 394 453 38,000  Level Salt Lake Center
03:36PM 45.6719 -108.7889 328° Northwest 393 452 38,000  Level Salt Lake Center
03:37PM 45.7681 -108.8750 328° Northwest 408 470 38,000  Level Salt Lake Center
03:38PM 45.8636 -108.9614 328° Northwest 407 468 38,000  Level Salt Lake Center
03:39PM 45.9594 -109.0481 328° Northwest 407 468 38,000  Level Salt Lake Center
03:40PM 46.0572 -109.1364 328° Northwest 412 474 38,000  Level Salt Lake Center
03:41PM 46.1514 -109.2219 328° Northwest 399 459 38,000  Level Salt Lake Center
03:42PM 46.2453 -109.3075 328° Northwest 399 459 38,000  Level Salt Lake Center
03:43PM 46.3383 -109.3936 327° Northwest 397 457 38,000  Level Salt Lake Center
03:44PM 46.4522 -109.4986 328° Northwest 405 466 38,000  Level Salt Lake Center
03:45PM 46.5472 -109.5903 326° Northwest 409 471 38,000  Level Salt Lake Center
03:46PM 46.6456 -109.6817 327° Northwest 417 480 38,000  Level Salt Lake Center
03:47PM 46.7436 -109.7711 328° Northwest 412 474 38,000 -60 Level Salt Lake Center
03:48PM 46.8425 -109.8617 328° Northwest 416 479 37,900  Descending Salt Lake Center
03:49PM 46.9436 -109.9572 327° Northwest 429 494 38,000  Climbing Salt Lake Center
03:51PM 47.0453 -110.0525 327° Northwest 434 499 37,900  Descending Salt Lake Center
03:52PM 47.1469 -110.1514 327° Northwest 438 504 38,000  Climbing Salt Lake Center
03:53PM 47.2483 -110.2494 327° Northwest 439 505 37,900 -60 Descending Salt Lake Center
03:54PM 47.3661 -110.3633 327° Northwest 428 493 37,900  Level Salt Lake Center
03:55PM 47.4653 -110.4581 327° Northwest 428 493 37,900  Level Salt Lake Center
03:56PM 47.5661 -110.5531 328° Northwest 432 497 38,000  Climbing Salt Lake Center
03:57PM 47.6633 -110.6508 326° Northwest 428 493 38,000  Level Salt Lake Center
03:58PM 47.7606 -110.7450 327° Northwest 425 489 38,000 -60 Level Salt Lake Center
03:59PM 47.8561 -110.8389 327° Northwest 420 483 37,900 -60 Descending Salt Lake Center
04:00PM 47.9711 -110.9547 326° Northwest 420 483 37,900  Level Salt Lake Center
04:01PM 48.0692 -111.0514 327° Northwest 423 487 38,000  Climbing Salt Lake Center
04:02PM 48.1681 -111.1506 326° Northwest 429 494 38,000 -60 Level Salt Lake Center
04:03PM 48.2681 -111.2500 327° Northwest 432 497 37,900  Descending Salt Lake Center
04:04PM 48.3661 -111.3489 326° Northwest 430 495 38,000  Climbing Salt Lake Center
04:05PM 48.4656 -111.4489 326° Northwest 430 495 37,900  Descending Salt Lake Center
04:06PM 48.5833 -111.5689 326° Northwest 429 494 38,000  Climbing Salt Lake Center
04:07PM 48.6806 -111.6675 326° Northwest 425 489 38,000  Level Salt Lake Center
04:07PM 48.7167 -111.7500 304° West 420 483 38,000  Level Edmonton Center
04:08PM 48.8000 -111.8333 327° Northwest 420 483 38,000 -120 Level Edmonton Center
04:09PM 48.8750 -111.8686 343° North 424 488 37,900  Descending Salt Lake Center
04:10PM 49.0000 -112.0500 316° Northwest 430 495 38,000  Climbing Edmonton Center
04:11PM 49.1000 -112.1333 331° Northwest 430 495 38,000  Level Edmonton Center
04:12PM 49.2000 -112.2667 319° Northwest 430 495 38,000  Level Edmonton Center
04:13PM 49.3000 -112.3500 331° Northwest 430 495 38,000  Level Edmonton Center
04:14PM 49.4000 -112.4500 327° Northwest 430 495 38,000  Level Edmonton Center
04:15PM 49.5000 -112.5667 323° Northwest 430 495 38,000  Level Edmonton Center
04:16PM 49.6000 -112.6667 327° Northwest 430 495 38,000  Level Edmonton Center
04:17PM 49.7167 -112.7667 331° Northwest 440 506 38,000  Level Edmonton Center
04:18PM 49.8000 -112.8500 327° Northwest 440 506 38,000  Level Edmonton Center
04:19PM 49.9333 -112.9500 334° Northwest 440 506 38,000  Level Edmonton Center
04:20PM 50.0333 -113.0333 332° Northwest 440 506 38,000  Level Edmonton Center
04:21PM 50.1333 -113.1333 327° Northwest 430 495 38,000  Level Edmonton Center
04:22PM 50.2333 -113.2000 337° Northwest 430 495 38,000  Level Edmonton Center
04:23PM 50.3667 -113.3000 334° Northwest 430 495 38,000  Level Edmonton Center
04:24PM 50.4667 -113.3667 337° Northwest 440 506 38,000  Level Edmonton Center
04:25PM 50.5667 -113.4667 328° Northwest 440 506 38,000  Level Edmonton Center
04:26PM 50.6833 -113.5500 336° Northwest 430 495 38,000  Level Edmonton Center
04:27PM 50.7833 -113.6500 328° Northwest 430 495 38,000  Level Edmonton Center
04:28PM 50.8833 -113.7500 328° Northwest 430 495 38,000  Level Edmonton Center
04:29PM 51.0000 -113.8333 336° Northwest 440 506 38,000  Level Edmonton Center
04:30PM 51.1167 -113.9333 332° Northwest 430 495 38,000  Level Edmonton Center
04:31PM 51.1833 -114.0500 312° West 440 506 38,000  Level Edmonton Center
04:32PM 51.2833 -114.1833 320° Northwest 430 495 38,000  Level Edmonton Center
04:33PM 51.3667 -114.3167 315° West 430 495 38,000  Level Edmonton Center
04:34PM 51.4500 -114.4667 312° West 440 506 38,000  Level Edmonton Center
04:35PM 51.5500 -114.6000 320° Northwest 440 506 38,000  Level Edmonton Center
04:36PM 51.6333 -114.7500 312° West 430 495 38,000  Level Edmonton Center
04:37PM 51.7167 -114.8833 315° West 430 495 38,000  Level Edmonton Center
04:38PM 51.8000 -115.0167 315° West 430 495 38,000  Level Edmonton Center
04:39PM 51.8833 -115.1667 312° West 430 495 38,000  Level Edmonton Center
04:40PM 51.9833 -115.3000 321° Northwest 430 495 38,000  Level Edmonton Center
04:41PM 52.0667 -115.4333 315° West 440 506 38,000  Level Edmonton Center
04:42PM 52.1333 -115.6000 303° West 440 506 38,000  Level Edmonton Center
04:43PM 52.2333 -115.7333 321° Northwest 430 495 38,000  Level Edmonton Center
04:44PM 52.3167 -115.8667 316° Northwest 430 495 38,000  Level Edmonton Center
04:45PM 52.4000 -116.0167 312° West 430 495 38,000  Level Edmonton Center
04:46PM 52.5000 -116.1667 318° Northwest 430 495 38,000  Level Edmonton Center
04:47PM 52.5833 -116.3000 316° Northwest 430 495 38,000  Level Edmonton Center
04:48PM 52.6500 -116.4333 310° West 430 495 38,000  Level Edmonton Center
04:49PM 52.7333 -116.6000 310° West 440 506 38,000  Level Edmonton Center
04:50PM 52.8333 -116.7333 321° Northwest 440 506 38,000  Level Edmonton Center
04:51PM 52.9167 -116.8667 316° Northwest 440 506 38,000  Level Edmonton Center
04:52PM 53.0000 -117.0333 310° West 440 506 38,000  Level Edmonton Center
04:53PM 53.0833 -117.1833 313° West 440 506 38,000  Level Edmonton Center
04:54PM 53.1500 -117.3167 310° West 440 506 38,000  Level Edmonton Center
04:55PM 53.2500 -117.4833 315° West 440 506 38,000  Level Edmonton Center
04:56PM 53.3333 -117.6167 316° Northwest 440 506 38,000  Level Edmonton Center
04:57PM 53.4167 -117.8000 307° West 430 495 38,000  Level Edmonton Center
04:58PM 53.5000 -117.9333 316° Northwest 430 495 38,000  Level Edmonton Center
04:59PM 53.5667 -118.0667 310° West 440 506 38,000  Level Edmonton Center
05:00PM 53.6500 -118.2500 308° West 440 506 38,000  Level Edmonton Center
05:01PM 53.7333 -118.3833 317° Northwest 440 506 38,000  Level Edmonton Center
05:02PM 53.8167 -118.5333 313° West 440 506 38,000  Level Edmonton Center
05:03PM 53.9000 -118.7167 308° West 440 506 38,000  Level Edmonton Center
05:04PM 54.0000 -118.8500 322° Northwest 430 495 38,000  Level Edmonton Center
05:05PM 54.0833 -119.0000 313° West 440 506 38,000  Level Edmonton Center
05:06PM 54.1667 -119.1833 308° West 440 506 38,000  Level Edmonton Center
05:07PM 54.2333 -119.3167 311° West 440 506 38,000  Level Edmonton Center
05:08PM 54.3167 -119.4667 314° West 430 495 38,000  Level Edmonton Center
05:09PM 54.4000 -119.6500 308° West 440 506 38,000  Level Edmonton Center
05:10PM 54.4833 -119.8000 314° West 440 506 38,000  Level Edmonton Center
05:11PM 54.5667 -119.9500 314° West 440 506 38,000  Level Edmonton Center
05:12PM 54.6333 -120.1000 308° West 430 495 38,000  Level Edmonton Center
05:13PM 54.7167 -120.2833 308° West 440 506 38,000  Level Edmonton Center
05:14PM 54.8000 -120.4333 314° West 440 506 38,000  Level Edmonton Center
05:15PM 54.8833 -120.5833 314° West 440 506 38,000  Level Edmonton Center
05:16PM 54.9500 -120.7667 302° West 440 506 38,000  Level Edmonton Center
05:17PM 55.0333 -120.9167 314° West 440 506 38,000  Level Edmonton Center
05:18PM 55.1167 -121.1000 309° West 440 506 38,000  Level Edmonton Center
05:19PM 55.1833 -121.2500 308° West 430 495 38,000  Level Edmonton Center
05:20PM 55.2667 -121.4167 311° West 440 506 38,000  Level Edmonton Center
05:21PM 55.3500 -121.5667 314° West 430 495 38,000  Level Edmonton Center
05:22PM 55.4333 -121.7333 311° West 430 495 38,000  Level Edmonton Center
05:23PM 55.5000 -121.9167 303° West 430 495 38,000  Level Edmonton Center
05:24PM 55.5667 -122.0667 308° West 430 495 38,000  Level Edmonton Center
05:25PM 55.6500 -122.2667 306° West 440 506 38,000  Level Edmonton Center
05:26PM 55.7333 -122.4167 315° West 440 506 38,000  Level Edmonton Center
05:28PM 55.8000 -122.5833 305° West 440 506 38,000  Level Edmonton Center
05:29PM 55.8833 -122.7500 312° West 440 506 38,000  Level Edmonton Center
05:30PM 55.9667 -122.9333 309° West 440 506 38,000  Level Edmonton Center
05:31PM 56.0333 -123.1000 306° West 440 506 38,000  Level Edmonton Center
05:32PM 56.1000 -123.2500 309° West 440 506 38,000  Level Edmonton Center
05:33PM 56.2000 -123.4667 310° West 440 506 38,000  Level Edmonton Center
05:34PM 56.2500 -123.6167 301° West 440 506 38,000  Level Edmonton Center
05:35PM 56.3500 -123.8167 312° West 450 518 38,000  Level Edmonton Center
05:36PM 56.4167 -123.9833 306° West 440 506 38,000  Level Edmonton Center
05:37PM 56.4833 -124.1500 306° West 440 506 38,000  Level Edmonton Center
05:38PM 56.5667 -124.3500 307° West 450 518 38,000  Level Edmonton Center
05:39PM 56.6333 -124.5167 306° West 440 506 38,000  Level Edmonton Center
05:40PM 56.7167 -124.6833 312° West 440 506 38,000  Level Edmonton Center
05:41PM 56.7833 -124.8833 301° West 440 506 38,000  Level Edmonton Center
05:42PM 56.8667 -125.0667 310° West 440 506 38,000  Level Edmonton Center
05:43PM 56.9167 -125.2500 297° West 440 506 38,000  Level Edmonton Center
06:20PM 58.6333 -133.3333 285° West 450 518 38,000  Level Anchorage Center
06:21PM 58.5745 -132.9721 288° West  Level FlightAware Approximate
06:21PM 58.6667 -133.5667 285° West 450 518 38,000  Level Anchorage Center
06:22PM 58.6120 -133.1912 288° West  Level FlightAware Approximate
06:22PM 58.7000 -133.8000 285° West 450 518 38,000  Level Anchorage Center
06:23PM 58.6492 -133.4108 288° West  Level FlightAware Approximate
06:23PM 58.7500 -134.0167 294° West 450 518 38,000  Level Anchorage Center
06:24PM 58.6861 -133.6315 288° West  Level FlightAware Approximate
06:24PM 58.7833 -134.2500 286° West 450 518 38,000  Level Anchorage Center
06:25PM 58.7217 -133.8531 285° West  Level FlightAware Approximate
06:25PM 58.8167 -134.4833 286° West 450 518 38,000  Level Anchorage Center
06:26PM 58.7524 -134.0777 285° West  Level FlightAware Approximate
06:26PM 58.8500 -134.7167 286° West 460 529 38,000  Level Anchorage Center
06:27PM 58.8833 -134.9500 286° West 460 529 38,000  Level Anchorage Center
06:29PM 58.9167 -135.2000 285° West 460 529 38,000  Level Anchorage Center
06:30PM 58.9667 -135.4333 293° West 460 529 38,000  Level Anchorage Center
06:31PM 59.0000 -135.6500 287° West 460 529 38,000  Level Anchorage Center
06:32PM 59.0333 -135.9000 285° West 460 529 38,000  Level Anchorage Center
06:33PM 59.0667 -136.1333 286° West 460 529 38,000  Level Anchorage Center
06:34PM 59.1000 -136.3833 285° West 460 529 38,000  Level Anchorage Center
06:35PM 59.1333 -136.6167 286° West 460 529 38,000  Level Anchorage Center
06:36PM 59.1667 -136.8500 286° West 460 529 38,000  Level Anchorage Center
06:37PM 59.2000 -137.1000 285° West 460 529 38,000  Level Anchorage Center
06:38PM 59.2333 -137.3333 286° West 450 518 38,000  Level Anchorage Center
06:39PM 59.2500 -137.5667 278° West 460 529 38,000  Level Anchorage Center
06:40PM 59.2833 -137.8167 285° West 460 529 38,000  Level Anchorage Center
06:41PM 59.3167 -138.0667 285° West 470 541 38,000  Level Anchorage Center
06:42PM 59.3500 -138.3667 282° West 470 541 38,000  Level Anchorage Center
06:43PM 59.3833 -138.6167 285° West 460 529 38,000  Level Anchorage Center
06:44PM 59.4167 -138.8667 285° West 470 541 38,000  Level Anchorage Center
06:45PM 59.4500 -139.1167 285° West 470 541 38,000  Level Anchorage Center
06:46PM 59.4667 -139.3667 278° West 470 541 38,000  Level Anchorage Center
06:47PM 59.5000 -139.6167 285° West 450 518 38,000  Level Anchorage Center
06:48PM 59.5333 -139.8500 286° West 460 529 38,000  Level Anchorage Center
06:49PM 59.5833 -140.0833 293° West 470 541 38,000  Level Anchorage Center
06:50PM 59.6167 -140.3333 285° West 470 541 38,000  Level Anchorage Center
06:51PM 59.6667 -140.5667 293° West 470 541 38,000  Level Anchorage Center
06:52PM 59.7000 -140.8167 285° West 460 529 38,000  Level Anchorage Center
06:53PM 59.7333 -141.0667 285° West 460 529 38,000  Level Anchorage Center
06:54PM 59.7667 -141.3167 285° West 470 541 38,000  Level Anchorage Center
06:55PM 59.8167 -141.5500 293° West 460 529 38,000  Level Anchorage Center
06:56PM 59.8500 -141.8000 285° West 460 529 38,000  Level Anchorage Center
06:57PM 59.8833 -142.0500 285° West 470 541 38,000  Level Anchorage Center
06:58PM 59.9167 -142.3000 285° West 460 529 38,000  Level Anchorage Center
06:59PM 59.9667 -142.5500 292° West 470 541 38,000  Level Anchorage Center
07:00PM 60.0000 -142.8000 285° West 470 541 38,000  Level Anchorage Center
07:01PM 60.0333 -143.0500 285° West 470 541 38,000  Level Anchorage Center
07:02PM 60.0667 -143.3167 284° West 470 541 38,000  Level Anchorage Center
07:03PM 60.1000 -143.5667 285° West 470 541 38,000  Level Anchorage Center
07:04PM 60.1333 -143.8167 285° West 460 529 38,000  Level Anchorage Center
07:05PM 60.1667 -144.0833 284° West 470 541 38,000  Level Anchorage Center
07:06PM 60.2000 -144.3333 285° West 470 541 38,000  Level Anchorage Center
07:07PM 60.2333 -144.6000 284° West 480 552 38,000  Level Anchorage Center
07:08PM 60.2667 -144.8500 285° West 470 541 38,000  Level Anchorage Center
07:09PM 60.3000 -145.1167 284° West 470 541 38,000  Level Anchorage Center
07:10PM 60.3333 -145.3667 285° West 470 541 38,000  Level Anchorage Center
07:16PM 60.5634 -146.9751 285° West 480 552 38,000  Level FlightAware ADS-B (PANC)
07:16PM 60.5986 -147.1371 294° West 480 552 38,000  Level FlightAware ADS-B (PANC)
07:17PM 60.6335 -147.2996 294° West 481 554 38,000  Level FlightAware ADS-B (PANC)
07:18PM 60.6720 -147.4802 294° West 481 554 38,000  Level FlightAware ADS-B (PANC)
07:18PM 60.7088 -147.6540 293° West 482 555 38,000  Level FlightAware ADS-B (PANC)
07:19PM 60.7430 -147.8166 293° West 482 555 38,000  Level FlightAware ADS-B (PANC)
07:20PM 60.7781 -147.9855 293° West 482 555 38,000  Level FlightAware ADS-B (PANC)
07:20PM 60.8126 -148.1528 293° West 482 555 38,000  Level FlightAware ADS-B (PANC)
07:21PM 60.8473 -148.3223 293° West 482 555 38,000  Level FlightAware ADS-B (PANC)
07:22PM 60.8817 -148.4919 293° West 483 556 38,000  Level FlightAware ADS-B (PANC)
07:23PM 60.9150 -148.6572 293° West 485 558 38,000  Level FlightAware ADS-B (PANC)
07:23PM 60.9494 -148.8297 292° West 484 557 38,000  Level FlightAware ADS-B (PANC)
07:24PM 60.9829 -148.9991 292° West 485 558 38,000  Level FlightAware ADS-B (PANC)
07:24PM 61.0165 -149.1702 292° West 486 559 38,000  Level FlightAware ADS-B (PANC)
07:25PM 61.0481 -149.3320 292° West 487 560 38,000  Level FlightAware ADS-B (PANC)
07:26PM 61.0836 -149.5163 292° West 487 560 38,000  Level FlightAware ADS-B (PANC)
07:27PM 61.1167 -149.6893 292° West 485 558 38,000  Level FlightAware ADS-B (PANC)
07:27PM 61.1434 -149.8296 292° West 485 558 38,000  Level FlightAware ADS-B (PANC)
07:28PM 61.1654 -149.9823 287° West 483 556 38,000  Level FlightAware ADS-B (PANC)
07:29PM 61.1727 -150.2079 274° West 485 558 38,000  Level FlightAware ADS-B (PANC)
07:29PM 61.1761 -150.3978 272° West 486 559 38,000  Level FlightAware ADS-B (PANC)
07:30PM 61.1792 -150.5834 272° West 486 559 38,000  Level FlightAware ADS-B (PANC)
07:30PM 61.1820 -150.7672 272° West 486 559 38,000  Level FlightAware ADS-B (PANC)
07:31PM 61.1847 -150.9603 272° West 486 559 38,000  Level FlightAware ADS-B (PANC)
07:32PM 61.1870 -151.1497 272° West 487 560 38,000  Level FlightAware ADS-B (PANC)
07:33PM 61.1891 -151.3453 271° West 489 563 38,000  Level FlightAware ADS-B (PANC)
07:33PM 61.1909 -151.5359 271° West 489 563 38,000  Level FlightAware ADS-B (PANC)
07:34PM 61.1923 -151.6985 271° West 489 563 38,000  Level FlightAware ADS-B (PANC)
07:35PM 61.1938 -151.9108 271° West 489 563 38,000  Level FlightAware ADS-B (PANC)
07:35PM 61.1946 -152.0835 271° West 489 563 38,000  Level FlightAware ADS-B (PANC)
07:36PM 61.1954 -152.2739 271° West 489 563 38,000  Level FlightAware ADS-B (PANC)
07:37PM 61.1959 -152.4645 270° West 489 563 38,000  Level FlightAware ADS-B (PANC)
07:37PM 61.1961 -152.6101 270° West 488 562 38,000  Level FlightAware ADS-B (PANC)
07:38PM 61.1960 -152.8391 270° West 487 560 38,000  Level FlightAware ADS-B (PANC)
07:39PM 61.1958 -153.0190 270° West 489 563 38,000  Level FlightAware ADS-B (PANC)
07:39PM 61.1953 -153.2126 270° West 490 564 38,000  Level FlightAware ADS-B (PANC)
07:40PM 61.1945 -153.4027 270° West 491 565 38,000  Level FlightAware ADS-B (PANC)
07:41PM 61.1935 -153.5709 269° West 493 567 38,000  Level FlightAware ADS-B (PANC)
07:41PM 61.1920 -153.7840 269° West 494 568 38,000  Level FlightAware ADS-B (PANC)
07:42PM 61.1904 -153.9707 269° West 493 567 38,000  Level FlightAware ADS-B (PANC)
07:43PM 61.1886 -154.1592 269° West 494 568 38,000  Level FlightAware ADS-B (PANC)
07:43PM 61.1865 -154.3405 269° West 495 570 38,000  Level FlightAware ADS-B (PANC)
07:44PM 61.1841 -154.5391 269° West 495 570 38,000  Level FlightAware ADS-B (PANC)
07:45PM 61.1817 -154.7104 268° West 496 571 38,000  Level FlightAware ADS-B (PANC)
07:45PM 61.1786 -154.9125 268° West 498 573 38,000  Level FlightAware ADS-B (PANC)
07:46PM 61.1758 -155.0731 268° West 498 573 38,000  Level FlightAware ADS-B (PANC)
07:47PM 61.1667 -155.4000 268° West 510 587 38,000  Level Anchorage Center
07:48PM 61.1500 -155.6667 263° West 470 541 38,000  Level Anchorage Center
07:49PM 61.1500 -155.9500 270° West 480 552 38,000  Level Anchorage Center
07:50PM 61.1500 -156.2167 270° West 500 575 38,000  Level Anchorage Center
07:51PM 61.1333 -156.5000 263° West 490 564 38,000  Level Anchorage Center
07:52PM 61.1333 -156.7833 270° West 490 564 38,000  Level Anchorage Center
07:53PM 61.1167 -157.0667 263° West 480 552 38,000  Level Anchorage Center
07:54PM 61.1167 -157.3500 270° West 490 564 38,000  Level Anchorage Center
07:55PM 61.1000 -157.6333 263° West 480 552 38,000  Level Anchorage Center
07:56PM 61.0833 -157.9167 263° West 490 564 38,000  Level Anchorage Center
07:57PM 61.0833 -158.1833 270° West 480 552 38,000  Level Anchorage Center
07:58PM 61.0667 -158.4667 263° West 490 564 38,000  Level Anchorage Center
07:59PM 61.0500 -158.7500 263° West 480 552 38,000  Level Anchorage Center
08:00PM 61.0333 -159.0333 263° West 490 564 38,000  Level Anchorage Center
08:01PM 61.0333 -159.3167 270° West 490 564 38,000  Level Anchorage Center
08:02PM 61.0167 -159.6000 263° West 480 552 38,000  Level Anchorage Center
08:03PM 61.0000 -159.8833 263° West 490 564 38,000  Level Anchorage Center
08:04PM 60.9833 -160.1667 263° West 480 552 38,000  Level Anchorage Center
08:05PM 60.9500 -160.4333 256° West 490 564 38,000  Level Anchorage Center
08:06PM 60.9333 -160.7500 264° West 480 552 38,000  Level Anchorage Center
08:07PM 60.9000 -161.0167 256° West 480 552 38,000  Level Anchorage Center
08:08PM 60.8833 -161.3000 263° West 490 564 38,000  Level Anchorage Center
08:09PM 60.8500 -161.5667 256° West 490 564 38,000  Level Anchorage Center
08:10PM 60.8333 -161.8500 263° West 480 552 38,000  Level Anchorage Center
08:11PM 60.8000 -162.1167 256° West 490 564 38,000 120 Level Anchorage Center
08:12PM 60.7833 -162.3833 263° West 470 541 38,300 300 Climbing Anchorage Center
08:13PM 60.7500 -162.6667 257° West 480 552 38,700 540 Climbing Anchorage Center
08:14PM 60.7167 -162.9333 256° West 490 564 39,500 600 Climbing Anchorage Center
08:15PM 60.6833 -163.2167 257° West 490 564 40,000 240 Climbing Anchorage Center
08:16PM 60.6667 -163.4833 263° West 490 564 40,000  Level Anchorage Center
08:17PM 60.6333 -163.7667 257° West 490 564 40,000  Level Anchorage Center
08:18PM 60.6000 -164.0333 256° West 490 564 40,000  Level Anchorage Center
08:19PM 60.5667 -164.3000 256° West 490 564 40,000  Level Anchorage Center
08:20PM 60.5333 -164.5833 257° West 490 564 40,000  Level Anchorage Center
08:21PM 60.5000 -164.8500 256° West 480 552 40,000  Level Anchorage Center
08:22PM 60.4833 -165.1167 263° West 480 552 40,000  Level Anchorage Center
08:23PM 60.4500 -165.3833 256° West 490 564 40,000  Level Anchorage Center
08:24PM 60.4000 -165.6500 249° West 490 564 40,000  Level Anchorage Center
08:25PM 60.3667 -165.9167 256° West 480 552 40,000  Level Anchorage Center
08:26PM 60.3333 -166.1833 256° West 490 564 40,000  Level Anchorage Center
08:27PM 60.3000 -166.4667 257° West 490 564 40,000  Level Anchorage Center
08:28PM 60.2667 -166.7167 255° West 480 552 40,000  Level Anchorage Center
08:29PM 60.2333 -167.0500 259° West 490 564 40,000  Level Anchorage Center
08:30PM 60.1833 -167.3167 249° West 500 575 40,000  Level Anchorage Center
08:31PM 60.1500 -167.5833 256° West 490 564 40,000  Level Anchorage Center
08:32PM 60.1167 -167.8500 256° West 490 564 40,000  Level Anchorage Center
08:33PM 60.0833 -168.1000 255° West 480 552 40,000  Level Anchorage Center
08:34PM 60.0500 -168.3000 252° West 480 552 40,000  Level Anchorage Center
08:35PM 60.0000 -168.6333 253° West 490 564 40,000  Level Anchorage Center
08:36PM 59.9500 -168.8833 248° West 490 564 40,000  Level Anchorage Center
08:37PM 59.9167 -169.1500 256° West 480 552 40,000  Level Anchorage Center
08:38PM 59.8833 -169.4000 255° West 480 552 40,000  Level Anchorage Center
08:39PM 59.8333 -169.6500 248° West 480 552 40,000  Level Anchorage Center
08:40PM 59.8000 -169.9333 257° West 480 552 40,000  Level Anchorage Center
08:41PM 59.7667 -170.1333 252° West 480 552 40,000  Level Anchorage Center
08:42PM 59.7167 -170.3833 248° West 480 552 40,000  Level Anchorage Center
08:43PM 59.6833 -170.6333 255° West 470 541 40,000  Level Anchorage Center
08:44PM 59.6333 -170.8833 249° West 480 552 40,000  Level Anchorage Center
08:45PM 59.5833 -171.1333 249° West 470 541 40,000  Level Anchorage Center
08:46PM 59.5500 -171.3833 255° West 490 564 40,000  Level Anchorage Center
08:47PM 59.5000 -171.6333 249° West 480 552 40,000  Level Anchorage Center
08:48PM 59.4500 -171.9000 250° West 500 575 40,000  Level Anchorage Center
08:49PM 59.4000 -172.1500 249° West 470 541 40,000  Level Anchorage Center
08:50PM 59.3667 -172.4000 255° West 480 552 40,000  Level Anchorage Center
08:51PM 59.3167 -172.6333 247° West 480 552 40,000  Level Anchorage Center
08:52PM 59.2667 -172.8833 249° West 480 552 40,000  Level Anchorage Center
08:53PM 59.2167 -173.1333 249° West 480 552 40,000  Level Anchorage Center
08:54PM 59.1667 -173.3667 247° West 480 552 40,000  Level Anchorage Center
08:55PM 59.1167 -173.6167 249° West 480 552 40,000  Level Anchorage Center
08:56PM 59.0833 -173.8500 255° West 470 541 40,000  Level Anchorage Center
08:57PM 59.0333 -174.1000 249° West 480 552 40,000  Level Anchorage Center
08:59PM 58.9333 -174.5833 248° West 460 529 40,000  Level Anchorage Center
09:00PM 58.8833 -174.8167 248° West 480 552 40,000  Level Anchorage Center
09:01PM 58.8333 -175.0500 248° West 470 541 40,000  Level Anchorage Center
09:02PM 58.7667 -175.3000 243° Southwest 480 552 40,000  Level Anchorage Center
09:03PM 58.7167 -175.5333 248° West 480 552 40,000  Level Anchorage Center
09:04PM 58.6667 -175.7667 248° West 480 552 40,000  Level Anchorage Center
09:05PM 58.6167 -176.0000 248° West 470 541 40,000  Level Anchorage Center
09:06PM 58.5667 -176.2333 248° West 460 529 40,000  Level Anchorage Center
09:07PM 58.5167 -176.4667 248° West 480 552 40,000  Level Anchorage Center
09:08PM 58.4667 -176.7000 248° West 470 541 40,000  Level Anchorage Center
09:09PM 58.4000 -176.9333 241° Southwest 480 552 40,000  Level Anchorage Center
09:10PM 58.3500 -177.1500 246° West 470 541 40,000  Level Anchorage Center
09:15PM 58.0167 -178.2167 237° Southwest 458 527 40,000  Level Anchorage Center
09:25PM 57.3000 179.8000 235° Southwest 457 526 40,000  Level Anchorage Center
09:34PM 56.5667 177.9333 234° Southwest 460 529 40,000  Level Anchorage Center
09:39PM 56.2000 177.0667 232° Southwest 460 529 40,000  Level Anchorage Center
09:40PM 56.1862 176.9977 233° Southwest 457 526 40,000  Level FlightAware Transoceanic
09:40PM 56.1333 176.9333 228° Southwest 450 518 40,000  Level Anchorage Center
09:41PM 56.1117 176.8325 233° Southwest 460 529 40,000  Level FlightAware Transoceanic
09:41PM 56.0500 176.7167 236° Southwest 450 518 40,000  Level Anchorage Center
09:42PM 56.0349 176.6515 233° Southwest 460 529 40,000  Level FlightAware Transoceanic
09:42PM 55.9667 176.5000 236° Southwest 470 541 40,000  Level Anchorage Center
09:43PM 55.9579 176.4713 233° Southwest 460 529 40,000  Level FlightAware Transoceanic
09:43PM 55.9000 176.3500 232° Southwest 450 518 40,000  Level Anchorage Center
09:44PM 55.8806 176.2918 232° Southwest 460 529 40,000  Level FlightAware Transoceanic
09:44PM 55.8167 176.1667 231° Southwest 440 506 40,000  Level Anchorage Center
09:45PM 55.7500 176.0167 232° Southwest 440 506 40,000  Level Anchorage Center
09:46PM 55.6667 175.8167 234° Southwest 450 518 40,000  Level Anchorage Center
09:47PM 55.6000 175.6667 232° Southwest 450 518 40,000  Level Anchorage Center
09:48PM 55.5167 175.4833 231° Southwest 450 518 40,000  Level Anchorage Center
09:49PM 55.4500 175.3167 235° Southwest 450 518 40,000  Level Anchorage Center
09:50PM 55.3667 175.1333 231° Southwest 450 518 40,000  Level Anchorage Center
09:51PM 55.2833 174.9500 231° Southwest 450 518 40,000  Level Anchorage Center
09:52PM 55.2167 174.8000 232° Southwest 450 518 40,000  Level Anchorage Center
09:53PM 55.1333 174.6167 232° Southwest 450 518 40,000  Level Anchorage Center
09:54PM 55.0667 174.4667 232° Southwest 450 518 40,000  Level Anchorage Center
09:55PM 54.9667 174.2833 227° Southwest 440 506 40,000  Level Anchorage Center
09:56PM 54.9000 174.1333 232° Southwest 450 518 40,000  Level Anchorage Center
09:57PM 54.8167 173.9500 232° Southwest 450 518 40,000  Level Anchorage Center
09:58PM 54.7333 173.7667 232° Southwest 450 518 40,000  Level Anchorage Center
09:59PM 54.6667 173.6333 229° Southwest 450 518 40,000  Level Anchorage Center
10:00PM 54.5833 173.4333 234° Southwest 460 529 40,000  Level Anchorage Center
10:01PM 54.5000 173.3000 223° Southwest 450 518 40,000  Level Anchorage Center
10:02PM 54.4167 173.1167 232° Southwest 450 518 40,000  Level Anchorage Center
10:03PM 54.3500 172.9833 229° Southwest 440 506 40,000  Level Anchorage Center
10:04PM 54.2667 172.8000 232° Southwest 450 518 40,000  Level Anchorage Center
10:05PM 54.2000 172.6667 230° Southwest 430 495 40,000  Level Anchorage Center
10:06PM 54.1167 172.4833 232° Southwest 430 495 40,000  Level Anchorage Center
10:07PM 54.0500 172.3167 236° Southwest 420 483 40,000  Level Anchorage Center
10:08PM 53.9833 172.1667 233° Southwest 430 495 40,000  Level Anchorage Center
10:09PM 53.9167 171.9833 238° Southwest 430 495 40,000  Level Anchorage Center
10:10PM 53.8500 171.8333 233° Southwest 450 518 40,000  Level Anchorage Center
10:11PM 53.7667 171.6667 230° Southwest 430 495 40,000  Level Anchorage Center
10:12PM 53.7167 171.5167 241° Southwest 430 495 40,000  Level Anchorage Center
10:13PM 53.6333 171.3333 233° Southwest 420 483 40,000  Level Anchorage Center
10:14PM 53.5667 171.1667 236° Southwest 420 483 40,000  Level Anchorage Center
10:15PM 53.5000 171.0167 233° Southwest 420 483 40,000  Level Anchorage Center
10:16PM 53.4167 170.8500 230° Southwest 440 506 40,000  Level Anchorage Center
10:17PM 53.3667 170.7167 238° Southwest 430 495 40,000  Level Anchorage Center
10:18PM 53.2833 170.5333 233° Southwest 430 495 40,000  Level Anchorage Center
10:19PM 53.2333 170.4000 238° Southwest 430 495 40,000  Level Anchorage Center
10:20PM 53.1500 170.2333 230° Southwest 440 506 40,000  Level Anchorage Center
10:21PM 53.0667 170.0667 230° Southwest 410 472 40,000  Level Anchorage Center
10:22PM 53.0167 169.9333 238° Southwest 440 506 40,000  Level Anchorage Center
10:23PM 52.9333 169.7500 233° Southwest 420 483 40,000  Level Anchorage Center
10:24PM 52.9000 169.6000 250° West 430 495 40,000  Level Anchorage Center
10:25PM 52.8333 169.4000 241° Southwest 430 495 40,000  Level Anchorage Center
10:26PM 52.7833 169.2500 241° Southwest 440 506 40,000  Level Anchorage Center
10:27PM 52.7167 169.0667 239° Southwest 440 506 40,000  Level Anchorage Center
10:28PM 52.6667 168.9167 241° Southwest 440 506 40,000  Level Anchorage Center
10:29PM 52.6000 168.7333 239° Southwest 420 483 40,000  Level Anchorage Center
10:30PM 52.5333 168.5500 239° Southwest 440 506 40,000  Level Anchorage Center
10:31PM 52.4833 168.4000 241° Southwest 430 495 40,000  Level Anchorage Center
10:32PM 52.4167 168.2167 239° Southwest 440 506 40,000  Level Anchorage Center
10:33PM 52.3667 168.0667 241° Southwest 440 506 40,000  Level Anchorage Center
10:34PM 52.3000 167.8833 239° Southwest 440 506 40,000  Level Anchorage Center
10:35PM 52.2333 167.7333 234° Southwest 450 518 40,000  Level Anchorage Center
10:36PM 52.1833 167.5500 246° West 440 506 40,000  Level Anchorage Center
10:37PM 52.1167 167.4000 234° Southwest 450 518 40,000  Level Anchorage Center
10:42PM 51.8333 166.6000 239° Southwest 449 517 40,000 60 Level Anchorage Center
10:48PM 51.4333 165.5500 238° Southwest 454 522 41,000 60 Climbing Anchorage Center
10:52PM 51.1833 164.9500 237° Southwest 450 518 41,000  Level Anchorage Center
10:55PM 50.9500 164.3833 237° Southwest 451 519 41,000  Level Anchorage Center
11:01PM 50.5333 163.3667 236° Southwest 459 528 41,000  Level Anchorage Center
11:10PM 49.8333 161.7833 235° Southwest 460 529 41,000  Level Anchorage Center
11:15PM 49.4833 161.0333 234° Southwest 448 516 41,000  Level Anchorage Center
11:16PM 49.4479 160.9523 234° Southwest 459 528 41,000  Level FlightAware Transoceanic
11:17PM 49.3821 160.8123 234° Southwest 460 529 41,000  Level FlightAware Transoceanic
11:18PM 49.3061 160.6522 234° Southwest 460 529 41,000  Level FlightAware Transoceanic
11:19PM 49.2299 160.4926 234° Southwest 460 529 41,000  Level FlightAware Transoceanic
11:20PM 49.1535 160.3334 234° Southwest 460 529 41,000  Level FlightAware Transoceanic
11:21PM 49.0769 160.1748 234° Southwest 460 529 41,000  Level FlightAware Transoceanic
11:22PM 49.0000 160.0167 233° Southwest 448 516 41,000  Level FlightAware Transoceanic
11:23PM 48.9252 159.8641 233° Southwest 448 516 41,000  Level FlightAware Transoceanic
11:24PM 48.8502 159.7120 233° Southwest 448 516 41,000  Level FlightAware Transoceanic
11:25PM 48.7750 159.5603 233° Southwest 448 516 41,000  Level FlightAware Transoceanic
11:26PM 48.6996 159.4091 233° Southwest 448 516 41,000  Level FlightAware Transoceanic
11:27PM 48.6240 159.2583 233° Southwest 448 516 41,000  Level FlightAware Transoceanic
11:28PM 48.5482 159.1080 233° Southwest 448 516 41,000  Level FlightAware Transoceanic
11:29PM 48.4722 158.9582 233° Southwest 448 516 41,000  Level FlightAware Transoceanic
11:30PM 48.3961 158.8088 232° Southwest 448 516 41,000  Level FlightAware Transoceanic
11:31PM 48.3197 158.6598 232° Southwest 448 516 41,000  Level FlightAware Transoceanic
11:32PM 48.2431 158.5113 232° Southwest 448 516 41,000  Level FlightAware Transoceanic
11:33PM 48.1664 158.3632 232° Southwest 448 516 41,000  Level FlightAware Transoceanic
11:34PM 48.0894 158.2156 232° Southwest 448 516 41,000  Level FlightAware Transoceanic
11:35PM 48.0123 158.0684 232° Southwest 448 516 41,000  Level FlightAware Transoceanic
11:36PM 47.9350 157.9217 232° Southwest 448 516 41,000  Level FlightAware Transoceanic
11:37PM 47.8575 157.7754 232° Southwest 448 516 41,000  Level FlightAware Transoceanic
11:38PM 47.7798 157.6295 232° Southwest 448 516 41,000  Level FlightAware Transoceanic
11:39PM 47.7019 157.4841 231° Southwest 448 516 41,000  Level FlightAware Transoceanic
11:40PM 47.6239 157.3391 231° Southwest 448 516 41,000  Level FlightAware Transoceanic
11:41PM 47.5456 157.1945 231° Southwest 448 516 41,000  Level FlightAware Transoceanic
11:42PM 47.4672 157.0504 231° Southwest 448 516 41,000  Level FlightAware Transoceanic
11:43PM 47.3886 156.9067 231° Southwest 448 516 41,000  Level FlightAware Transoceanic
11:44PM 47.3098 156.7634 231° Southwest 448 516 41,000  Level FlightAware Transoceanic
11:45PM 47.2308 156.6205 231° Southwest 448 516 41,000  Level FlightAware Transoceanic
11:46PM 47.1517 156.4781 231° Southwest 448 516 41,000  Level FlightAware Transoceanic
11:47PM 47.0724 156.3361 231° Southwest 448 516 41,000  Level FlightAware Transoceanic
11:48PM 46.9929 156.1945 230° Southwest 448 516 41,000  Level FlightAware Transoceanic
11:49PM 46.9132 156.0534 230° Southwest 448 516 41,000  Level FlightAware Transoceanic
11:50PM 46.8334 155.9126 230° Southwest 448 516 41,000  Level FlightAware Transoceanic
11:51PM 46.7534 155.7723 230° Southwest 448 516 41,000  Level FlightAware Transoceanic
11:52PM 46.6732 155.6324 230° Southwest 448 516 41,000  Level FlightAware Transoceanic
11:53PM 46.5929 155.4929 230° Southwest 448 516 41,000  Level FlightAware Transoceanic
11:54PM 46.5124 155.3539 230° Southwest 448 516 41,000  Level FlightAware Transoceanic
11:55PM 46.4317 155.2152 230° Southwest 448 516 41,000  Level FlightAware Transoceanic
11:56PM 46.3508 155.0770 230° Southwest 448 516 41,000  Level FlightAware Transoceanic
11:57PM 46.2698 154.9391 230° Southwest 448 516 41,000  Level FlightAware Transoceanic
11:58PM 46.1886 154.8017 229° Southwest 448 516 41,000  Level FlightAware Transoceanic
11:59PM 46.1073 154.6646 229° Southwest 448 516 41,000  Level FlightAware Transoceanic
12:00AM 46.0258 154.5280 229° Southwest 448 516 41,000  Level FlightAware Transoceanic
12:01AM 45.9441 154.3918 229° Southwest 448 516 41,000  Level FlightAware Transoceanic
12:02AM 45.8623 154.2560 229° Southwest 448 516 41,000  Level FlightAware Transoceanic
12:03AM 45.7803 154.1205 229° Southwest 448 516 41,000  Level FlightAware Transoceanic
12:04AM 45.6981 153.9855 229° Southwest 448 516 41,000  Level FlightAware Transoceanic
12:05AM 45.6158 153.8509 229° Southwest 448 516 41,000  Level FlightAware Transoceanic
12:06AM 45.5259 153.7292 224° Southwest  Level FlightAware Approximate
12:07AM 45.4359 153.6078 223° Southwest  Level FlightAware Approximate
12:08AM 45.4452 153.6013 229° Southwest  Level FlightAware Approximate
12:09AM 45.3648 153.4721 228° Southwest  Level FlightAware Approximate
12:10AM 45.2842 153.3432 228° Southwest  Level FlightAware Approximate
12:11AM 45.2035 153.2147 228° Southwest  Level FlightAware Approximate
12:12AM 45.1227 153.0866 228° Southwest  Level FlightAware Approximate
12:13AM 45.0417 152.9588 228° Southwest  Level FlightAware Approximate
12:14AM 44.9605 152.8314 228° Southwest  Level FlightAware Approximate
12:15AM 44.8793 152.7043 228° Southwest  Level FlightAware Approximate
12:16AM 44.7979 152.5777 228° Southwest  Level FlightAware Approximate
12:17AM 44.7163 152.4513 228° Southwest  Level FlightAware Approximate
12:18AM 44.6346 152.3253 228° Southwest  Level FlightAware Approximate
12:19AM 44.5528 152.1997 228° Southwest  Level FlightAware Approximate
12:20AM 44.4708 152.0745 228° Southwest  Level FlightAware Approximate
12:21AM 44.3887 151.9495 227° Southwest  Level FlightAware Approximate
12:22AM 44.3065 151.8250 227° Southwest  Level FlightAware Approximate
12:23AM 44.2241 151.7007 227° Southwest  Level FlightAware Approximate
12:24AM 44.1416 151.5769 227° Southwest  Level FlightAware Approximate
12:25AM 44.0589 151.4534 227° Southwest  Level FlightAware Approximate
12:26AM 43.9762 151.3302 227° Southwest  Level FlightAware Approximate
12:27AM 43.8930 151.2076 227° Southwest  Level FlightAware Approximate
12:28AM 43.8094 151.0858 226° Southwest  Level FlightAware Approximate
12:29AM 43.7257 150.9643 226° Southwest  Level FlightAware Approximate
12:30AM 43.6419 150.8432 226° Southwest  Level FlightAware Approximate
12:31AM 43.5580 150.7224 226° Southwest  Level FlightAware Approximate
12:32AM 43.4739 150.6019 226° Southwest  Level FlightAware Approximate
12:33AM 43.3897 150.4818 226° Southwest  Level FlightAware Approximate
12:34AM 43.3054 150.3620 226° Southwest  Level FlightAware Approximate
12:35AM 43.2210 150.2425 226° Southwest  Level FlightAware Approximate
12:36AM 43.1364 150.1234 226° Southwest  Level FlightAware Approximate
12:37AM 43.0517 150.0046 226° Southwest  Level FlightAware Approximate
12:38AM 42.9669 149.8861 226° Southwest  Level FlightAware Approximate
12:39AM 42.8820 149.7679 226° Southwest  Level FlightAware Approximate
12:40AM 42.7969 149.6501 225° Southwest  Level FlightAware Approximate
12:41AM 42.7118 149.5326 225° Southwest  Level FlightAware Approximate
12:42AM 42.6265 149.4154 225° Southwest  Level FlightAware Approximate
12:43AM 42.5410 149.2986 225° Southwest  Level FlightAware Approximate
12:44AM 42.4555 149.1820 225° Southwest  Level FlightAware Approximate
12:45AM 42.3699 149.0658 225° Southwest  Level FlightAware Approximate
12:46AM 42.2841 148.9499 225° Southwest  Level FlightAware Approximate
12:47AM 42.1982 148.8343 225° Southwest  Level FlightAware Approximate
12:48AM 42.1122 148.7190 225° Southwest  Level FlightAware Approximate
12:49AM 42.0261 148.6041 225° Southwest  Level FlightAware Approximate
12:50AM 41.9399 148.4894 225° Southwest  Level FlightAware Approximate
12:51AM 41.8535 148.3751 225° Southwest  Level FlightAware Approximate
12:52AM 41.7671 148.2610 225° Southwest  Level FlightAware Approximate
12:53AM 41.6801 148.1478 224° Southwest  Level FlightAware Approximate
12:54AM 41.5928 148.0353 224° Southwest  Level FlightAware Approximate
12:55AM 41.5054 147.9230 224° Southwest  Level FlightAware Approximate
12:56AM 41.4179 147.8111 224° Southwest  Level FlightAware Approximate
12:57AM 41.3303 147.6994 224° Southwest  Level FlightAware Approximate
12:58AM 41.2425 147.5881 224° Southwest  Level FlightAware Approximate
12:59AM 41.1547 147.4770 224° Southwest  Level FlightAware Approximate
01:00AM 41.0667 147.3663 224° Southwest  Level FlightAware Approximate
01:01AM 40.9787 147.2558 223° Southwest  Level FlightAware Approximate
01:02AM 40.8905 147.1456 223° Southwest  Level FlightAware Approximate
01:03AM 40.8022 147.0358 223° Southwest  Level FlightAware Approximate
01:04AM 40.7139 146.9262 223° Southwest  Level FlightAware Approximate
01:05AM 40.6254 146.8169 223° Southwest  Level FlightAware Approximate
01:06AM 40.5368 146.7079 223° Southwest  Level FlightAware Approximate
01:07AM 40.4481 146.5992 223° Southwest  Level FlightAware Approximate
01:08AM 40.3593 146.4908 223° Southwest  Level FlightAware Approximate
01:09AM 40.2705 146.3826 223° Southwest  Level FlightAware Approximate
01:10AM 40.1815 146.2748 223° Southwest  Level FlightAware Approximate
01:11AM 40.0924 146.1672 223° Southwest  Level FlightAware Approximate
01:12AM 40.0032 146.0599 223° Southwest  Level FlightAware Approximate
01:13AM 39.9140 145.9529 223° Southwest  Level FlightAware Approximate
01:14AM 39.8246 145.8462 223° Southwest  Level FlightAware Approximate
01:15AM 39.7351 145.7397 222° Southwest  Level FlightAware Approximate
01:16AM 39.6455 145.6336 222° Southwest  Level FlightAware Approximate
01:17AM 39.5559 145.5277 222° Southwest  Level FlightAware Approximate
01:18AM 39.4661 145.4220 222° Southwest  Level FlightAware Approximate
01:19AM 39.3762 145.3167 222° Southwest  Level FlightAware Approximate
01:20AM 39.2863 145.2116 222° Southwest  Level FlightAware Approximate
01:21AM 39.1962 145.1068 222° Southwest  Level FlightAware Approximate
01:22AM 39.1061 145.0022 222° Southwest  Level FlightAware Approximate
01:23AM 39.0158 144.8979 222° Southwest  Level FlightAware Approximate
01:24AM 38.9255 144.7939 222° Southwest  Level FlightAware Approximate
01:25AM 38.8351 144.6902 222° Southwest  Level FlightAware Approximate
01:26AM 38.7444 144.5868 222° Southwest  Level FlightAware Approximate
01:27AM 38.6536 144.4839 222° Southwest  Level FlightAware Approximate
01:28AM 38.5628 144.3812 221° Southwest  Level FlightAware Approximate
01:29AM 38.4718 144.2788 221° Southwest  Level FlightAware Approximate
01:30AM 38.3807 144.1766 221° Southwest  Level FlightAware Approximate
01:31AM 38.2896 144.0747 221° Southwest  Level FlightAware Approximate
01:32AM 38.1983 143.9730 221° Southwest  Level FlightAware Approximate
01:33AM 38.1070 143.8716 221° Southwest  Level FlightAware Approximate
01:34AM 38.0156 143.7705 221° Southwest  Level FlightAware Approximate
01:35AM 37.9241 143.6696 221° Southwest  Level FlightAware Approximate
01:36AM 37.8324 143.5688 221° Southwest  Level FlightAware Approximate
01:37AM 37.7333 143.4807 212° Southwest  Level FlightAware Approximate
01:38AM 37.6302 143.3997 212° Southwest  Level FlightAware Approximate
01:39AM 37.5271 143.3189 212° Southwest  Level FlightAware Approximate
01:40AM 37.4239 143.2383 212° Southwest  Level FlightAware Approximate
01:41AM 37.3204 143.1578 212° Southwest  Level FlightAware Approximate
01:42AM 37.2170 143.0776 212° Southwest  Level FlightAware Approximate
01:43AM 37.1137 142.9971 219° Southwest  Level FlightAware Approximate
01:44AM 37.0150 142.9085 213° Southwest  Level FlightAware Approximate
01:45AM 36.9126 142.8264 213° Southwest  Level FlightAware Approximate
01:46AM 36.8102 142.7446 213° Southwest  Level FlightAware Approximate
01:47AM 36.7075 142.6634 212° Southwest  Level FlightAware Approximate
01:48AM 36.6040 142.5837 212° Southwest  Level FlightAware Approximate
01:49AM 36.4996 142.5064 206° Southwest  Level FlightAware Approximate
01:50AM 36.3955 142.4301 210° Southwest  Level FlightAware Approximate
01:51AM 36.2916 142.3544 210° Southwest  Level FlightAware Approximate
01:52AM 36.1878 142.2789 210° Southwest  Level FlightAware Approximate
01:53AM 36.0840 142.2034 210° Southwest  Level FlightAware Approximate
01:54AM 36.0226 142.0916 260° West  Level FlightAware Approximate
01:55AM 35.9901 141.9486 252° West  Level FlightAware Approximate
01:56AM 35.9529 141.8072 252° West  Level FlightAware Approximate
01:57AM 35.9162 141.6647 253° West  Level FlightAware Approximate
01:58AM 35.8946 141.5185 265° West  Level FlightAware Approximate
01:59AM 35.8846 141.3687 265° West  Level FlightAware Approximate
02:00AM 35.8619 141.2212 258° West  Level FlightAware Approximate
02:01AM 35.8405 141.0734 261° West  Level FlightAware Approximate
02:02AM 35.8219 140.9250 261° West  Level FlightAware Approximate
02:03AM 35.8102 140.7750 262° West  Level FlightAware Approximate
02:04AM 35.7905 140.6261 258° West  Level FlightAware Approximate
02:05AM 35.7667 140.4785 270° West  Level FlightAware Approximate
02:06AM 35.7500 140.3833 253° West  Level FlightAware Approximate
02:07AM 35.7647 140.3864 253° West  Level Estimated
02:08AM 35.7647 140.3864 253° West  Level Estimated
02:09AM 35.7647 140.3864 253° West  Level Estimated
02:10AM 35.7647 140.3864 253° West  Level Estimated
02:11AM 35.7647 140.3864 253° West  Level Estimated
02:12AM 35.7647 140.3864 253° West  Level Estimated
02:13AM 35.7647 140.3864 253° West  Level Estimated
02:14AM 35.7647 140.3864 253° West  Level Estimated
02:15AM 35.7647 140.3864 253° West  Level Estimated
02:16AM 35.7647 140.3864 253° West  Level Estimated
02:17AM 35.7647 140.3864 253° West  Level Estimated
02:18AM 35.7647 140.3864 253° West  Level Estimated
02:19AM 35.7647 140.3864 253° West  Level Estimated
02:20AM 35.7647 140.3864 253° West  Level Estimated
02:21AM 35.7647 140.3864 253° West  Level Estimated
02:22AM 35.7647 140.3864 253° West  Level Estimated